Time;durP1;ratioP1;P1;durP2;ratioP2;P2;SDS_P1;SDS_P2;PMS_P1;PMS_P2;Temp;Humidity;BMP_temperature;BMP_pressure;BME280_temperature;BME280_humidity;BME280_pressure;Samples;Min_cycle;Max_cycle;Signal;HPM_P1;HPM_P2
2022/12/13 00:02:02;;;;;;;4.57;2.90;;;;;;;-141.59;100.00;61776.25;5044688;28;20198;-91
2022/12/13 00:04:31;;;;;;;3.83;2.60;;;;;;;-141.59;100.00;61776.25;5054809;28;20208;-90
2022/12/13 00:06:58;;;;;;;5.83;2.87;;;;;;;-141.59;100.00;61776.25;5064099;28;20266;-90
2022/12/13 00:09:25;;;;;;;4.60;2.77;;;;;;;-141.59;100.00;61776.25;5048912;28;20207;-91
2022/12/13 00:11:53;;;;;;;7.07;3.37;;;;;;;-141.59;100.00;61776.25;5051261;28;20285;-90
2022/12/13 00:14:21;;;;;;;4.17;2.83;;;;;;;-141.59;100.00;61776.25;5069194;28;20206;-92
2022/12/13 00:16:49;;;;;;;5.37;3.43;;;;;;;-141.59;100.00;61776.25;5052169;28;20213;-90
2022/12/13 00:19:17;;;;;;;5.03;3.27;;;;;;;-141.59;100.00;61776.25;5047069;28;20226;-90
2022/12/13 00:21:46;;;;;;;4.50;2.97;;;;;;;-141.59;100.00;61776.25;5049509;28;20197;-90
2022/12/13 00:24:13;;;;;;;6.57;3.10;;;;;;;-141.59;100.00;61776.25;5050599;28;20230;-91
2022/12/13 00:26:40;;;;;;;4.40;2.97;;;;;;;-141.59;100.00;61776.25;5048472;28;20195;-90
2022/12/13 00:29:08;;;;;;;4.80;3.20;;;;;;;-141.59;100.00;61776.25;5050327;28;20212;-91
2022/12/13 00:31:36;;;;;;;4.53;2.87;;;;;;;-141.59;100.00;61776.25;5048453;28;20207;-91
2022/12/13 00:34:04;;;;;;;5.00;3.07;;;;;;;-141.59;100.00;61776.25;5063606;28;20202;-90
2022/12/13 00:36:31;;;;;;;7.87;4.37;;;;;;;-141.59;100.00;61776.25;5052219;28;20225;-91
2022/12/13 00:39:03;;;;;;;6.00;3.93;;;;;;;-141.59;100.00;61776.25;5054084;28;20217;-90
2022/12/13 00:41:32;;;;;;;10.67;4.17;;;;;;;-141.59;100.00;61776.25;5046893;28;20288;-90
2022/12/13 00:44:00;;;;;;;7.13;3.83;;;;;;;-141.59;100.00;61776.25;5057630;28;20202;-91
2022/12/13 00:46:28;;;;;;;9.60;4.73;;;;;;;-141.59;100.00;61776.25;5047397;28;20258;-90
2022/12/13 00:48:58;;;;;;;11.77;4.57;;;;;;;-141.59;100.00;61776.25;5053546;28;20265;-91
2022/12/13 00:51:28;;;;;;;9.10;4.23;;;;;;;-141.59;100.00;61776.25;5046737;28;20213;-90
2022/12/13 00:53:55;;;;;;;8.20;4.07;;;;;;;-141.59;100.00;61776.25;5042485;28;20190;-91
2022/12/13 00:56:25;;;;;;;6.23;3.70;;;;;;;-141.59;100.00;61776.25;5042414;28;20201;-91
2022/12/13 00:58:54;;;;;;;4.77;3.23;;;;;;;-141.59;100.00;61776.25;5048290;28;20226;-90
2022/12/13 01:01:23;;;;;;;5.93;3.50;;;;;;;-141.59;100.00;61776.25;5044206;28;20210;-90
2022/12/13 01:03:51;;;;;;;7.80;3.60;;;;;;;-141.59;100.00;61776.25;5045535;28;20202;-91
2022/12/13 01:06:21;;;;;;;6.20;3.37;;;;;;;-141.59;100.00;61776.25;5054742;28;20348;-91
2022/12/13 01:08:50;;;;;;;7.27;3.63;;;;;;;-141.59;100.00;61776.25;5053895;28;20205;-90
2022/12/13 01:11:18;;;;;;;5.23;3.00;;;;;;;-141.59;100.00;61776.25;5051660;28;20248;-91
2022/12/13 01:13:47;;;;;;;4.57;2.83;;;;;;;-141.59;100.00;61776.25;5049932;28;20198;-91
2022/12/13 01:16:14;;;;;;;5.37;2.57;;;;;;;-141.59;100.00;61776.25;5067359;28;20212;-91
2022/12/13 01:18:42;;;;;;;4.73;2.83;;;;;;;-141.59;100.00;61776.25;5049586;28;20268;-90
2022/12/13 01:21:12;;;;;;;7.47;2.83;;;;;;;-141.59;100.00;61776.25;5049039;28;20210;-90
2022/12/13 01:23:40;;;;;;;6.57;2.80;;;;;;;-141.59;100.00;61776.25;5052768;28;20214;-90
2022/12/13 01:26:10;;;;;;;5.50;3.27;;;;;;;-141.59;100.00;61776.25;5040767;28;20215;-90
2022/12/13 01:28:38;;;;;;;5.87;3.33;;;;;;;-141.59;100.00;61776.25;5049157;28;20199;-91
2022/12/13 01:31:09;;;;;;;7.03;3.60;;;;;;;-141.59;100.00;61776.25;5054816;28;20202;-90
2022/12/13 01:33:37;;;;;;;4.93;3.43;;;;;;;-141.59;100.00;61776.25;5044028;28;20219;-91
2022/12/13 01:36:06;;;;;;;7.50;3.33;;;;;;;-141.59;100.00;61776.25;5056298;28;20207;-90
2022/12/13 01:38:34;;;;;;;4.37;3.10;;;;;;;-141.59;100.00;61776.25;5058510;28;20272;-91
2022/12/13 01:41:02;;;;;;;6.33;3.67;;;;;;;-141.59;100.00;61776.25;5056419;28;20219;-91
2022/12/13 01:43:49;;;;;;;5.13;3.50;;;;;;;-141.59;100.00;61776.25;5063188;28;20217;-91
2022/12/13 01:46:19;;;;;;;5.73;3.40;;;;;;;-141.59;100.00;61776.25;5054865;28;20208;-91
2022/12/13 01:48:49;;;;;;;6.70;3.57;;;;;;;-141.59;100.00;61776.25;5048424;28;20281;-90
2022/12/13 01:51:19;;;;;;;6.17;3.80;;;;;;;-141.59;100.00;61776.25;5070683;28;20226;-90
2022/12/13 01:53:49;;;;;;;7.20;3.47;;;;;;;-141.59;100.00;61776.25;5055715;28;20195;-91
2022/12/13 01:56:20;;;;;;;6.60;4.00;;;;;;;-141.59;100.00;61776.25;5055982;28;20214;-91
2022/12/13 01:58:49;;;;;;;7.70;3.93;;;;;;;-141.59;100.00;61776.25;5054938;28;20260;-91
2022/12/13 02:01:19;;;;;;;5.20;3.43;;;;;;;-141.59;100.00;61776.25;5050832;28;20198;-91
2022/12/13 02:03:47;;;;;;;5.93;3.23;;;;;;;-141.59;100.00;61776.25;5053921;28;20211;-90
2022/12/13 02:06:18;;;;;;;7.43;3.97;;;;;;;-141.59;100.00;61776.25;5055641;28;20207;-90
2022/12/13 02:08:46;;;;;;;6.57;3.53;;;;;;;-141.59;100.00;61776.25;5047468;28;20226;-91
2022/12/13 02:11:14;;;;;;;9.07;4.37;;;;;;;-141.59;100.00;61776.25;5051485;28;20231;-90
2022/12/13 02:13:42;;;;;;;6.87;3.87;;;;;;;-141.59;100.00;61776.25;5068404;28;20203;-91
2022/12/13 02:16:14;;;;;;;8.33;3.97;;;;;;;-141.59;100.00;61776.25;5051845;28;20203;-90
2022/12/13 02:18:58;;;;;;;9.70;5.00;;;;;;;-141.59;100.00;61776.25;5053678;28;20232;-90
2022/12/13 02:21:33;;;;;;;7.87;4.77;;;;;;;-141.59;100.00;61776.25;5051876;28;20252;-90
2022/12/13 02:24:27;;;;;;;7.17;4.43;;;;;;;-141.59;100.00;61776.25;5041582;28;20237;-91
2022/12/13 02:27:29;;;;;;;7.47;4.50;;;;;;;-141.59;100.00;61776.25;5054100;28;20213;-90
2022/12/13 02:30:21;;;;;;;10.93;5.73;;;;;;;-141.59;100.00;61776.25;5050030;28;20203;-90
2022/12/13 02:33:02;;;;;;;9.30;5.40;;;;;;;-141.59;100.00;61776.25;5051497;28;20199;-91
2022/12/13 02:35:39;;;;;;;10.10;5.93;;;;;;;-141.59;100.00;61776.25;5049227;28;20211;-90
2022/12/13 02:38:14;;;;;;;11.53;6.43;;;;;;;-141.59;100.00;61776.25;5052683;28;20208;-91
2022/12/13 02:40:45;;;;;;;12.10;7.27;;;;;;;-141.59;100.00;61776.25;5050310;28;20209;-91
2022/12/13 02:43:19;;;;;;;11.17;6.43;;;;;;;-141.59;100.00;61776.25;5051442;28;20245;-90
2022/12/13 02:45:49;;;;;;;11.27;6.43;;;;;;;-141.59;100.00;61776.25;5051888;28;20273;-91
2022/12/13 02:48:21;;;;;;;14.47;8.23;;;;;;;-141.59;100.00;61776.25;5052817;28;20193;-91
2022/12/13 02:50:51;;;;;;;11.70;7.23;;;;;;;-141.59;100.00;61776.25;5052126;28;20208;-91
2022/12/13 02:53:20;;;;;;;13.20;7.27;;;;;;;-141.59;100.00;61776.25;5052061;28;20211;-90
2022/12/13 02:55:48;;;;;;;12.97;7.60;;;;;;;-141.59;100.00;61776.25;5046460;28;20211;-91
2022/12/13 02:58:17;;;;;;;13.47;7.33;;;;;;;-141.59;100.00;61776.25;5052431;28;20366;-91
2022/12/13 03:00:57;;;;;;;14.73;7.93;;;;;;;-141.59;100.00;61776.25;5052315;28;20202;-90
2022/12/13 03:03:37;;;;;;;12.80;7.87;;;;;;;-141.59;100.00;61776.25;5050400;28;20194;-91
2022/12/13 03:06:31;;;;;;;15.23;7.97;;;;;;;-141.59;100.00;61776.25;5069406;28;20198;-91
2022/12/13 03:09:23;;;;;;;13.03;7.33;;;;;;;-141.59;100.00;61776.25;5044797;28;20202;-91
2022/12/13 03:15:07;;;;;;;15.03;8.10;;;;;;;-141.59;100.00;61776.25;5047632;28;20190;-90
2022/12/13 03:17:41;;;;;;;15.40;8.03;;;;;;;-141.59;100.00;61776.25;5049671;28;20230;-90
2022/12/13 03:20:10;;;;;;;14.77;7.90;;;;;;;-141.59;100.00;61776.25;4991353;28;1372827;-92
2022/12/13 03:22:37;;;;;;;13.90;8.23;;;;;;;-141.59;100.00;61776.25;5044472;28;20226;-91
2022/12/13 03:25:05;;;;;;;13.07;7.33;;;;;;;-141.59;100.00;61776.25;5066976;28;20248;-90
2022/12/13 03:27:32;;;;;;;14.27;7.97;;;;;;;-141.59;100.00;61776.25;5051960;28;20197;-91
2022/12/13 03:30:00;;;;;;;12.43;7.80;;;;;;;-141.59;100.00;61776.25;5054738;28;20199;-91
2022/12/13 03:32:27;;;;;;;16.87;9.07;;;;;;;-141.59;100.00;61776.25;5047849;28;20225;-90
2022/12/13 03:34:56;;;;;;;15.77;8.93;;;;;;;-141.59;100.00;61776.25;5050632;28;20213;-90
2022/12/13 03:37:23;;;;;;;14.00;7.70;;;;;;;-141.59;100.00;61776.25;5067157;28;20240;-91
2022/12/13 03:39:50;;;;;;;13.00;8.13;;;;;;;-141.59;100.00;61776.25;5050759;28;20290;-90
2022/12/13 03:42:17;;;;;;;16.57;8.50;;;;;;;-141.59;100.00;61776.25;5056640;28;20202;-90
2022/12/13 03:44:44;;;;;;;16.17;9.27;;;;;;;-141.59;100.00;61776.25;5056602;28;20291;-91
2022/12/13 03:47:12;;;;;;;15.67;9.33;;;;;;;-141.59;100.00;61776.25;5055931;28;20312;-90
2022/12/13 03:49:39;;;;;;;16.83;9.27;;;;;;;-141.59;100.00;61776.25;5051744;28;20310;-91
2022/12/13 03:52:08;;;;;;;15.70;9.20;;;;;;;-141.59;100.00;61776.25;5052164;28;20202;-90
2022/12/13 03:54:35;;;;;;;16.67;10.17;;;;;;;-141.59;100.00;61776.25;5051792;28;20204;-90
2022/12/13 03:57:03;;;;;;;17.50;9.27;;;;;;;-141.59;100.00;61776.25;5041616;28;20204;-90
2022/12/13 03:59:30;;;;;;;18.00;10.10;;;;;;;-141.59;100.00;61776.25;5050339;28;20229;-90
2022/12/13 04:01:57;;;;;;;15.70;9.03;;;;;;;-141.59;100.00;61776.25;5053468;28;20204;-91
2022/12/13 04:04:24;;;;;;;17.87;9.90;;;;;;;-141.59;100.00;61776.25;5053352;28;20215;-90
2022/12/13 04:06:51;;;;;;;16.60;9.07;;;;;;;-141.59;100.00;61776.25;5053047;28;20208;-91
2022/12/13 04:09:20;;;;;;;15.93;8.93;;;;;;;-141.59;100.00;61776.25;5052555;28;20202;-90
2022/12/13 04:14:32;;;;;;;17.03;10.13;;;;;;;-141.59;100.00;61776.25;5048480;28;20289;-90
2022/12/13 04:16:59;;;;;;;17.63;9.83;;;;;;;-141.59;100.00;61776.25;5052665;28;20203;-90
2022/12/13 04:19:26;;;;;;;16.30;9.07;;;;;;;-141.59;100.00;61776.25;5050517;28;20252;-91
2022/12/13 04:21:54;;;;;;;16.57;9.53;;;;;;;-141.59;100.00;61776.25;5045506;28;20201;-90
2022/12/13 04:24:23;;;;;;;16.93;9.30;;;;;;;-141.59;100.00;61776.25;5050081;28;20200;-90
2022/12/13 04:26:50;;;;;;;16.63;9.23;;;;;;;-141.59;100.00;61776.25;5052552;28;20219;-91
2022/12/13 04:29:17;;;;;;;15.93;9.83;;;;;;;-141.59;100.00;61776.25;5049057;28;20199;-91
2022/12/13 04:31:44;;;;;;;16.10;9.03;;;;;;;-141.59;100.00;61776.25;5053847;28;20200;-90
2022/12/13 04:34:12;;;;;;;15.07;8.57;;;;;;;-141.59;100.00;61776.25;5052168;28;20233;-91
2022/12/13 04:36:40;;;;;;;15.77;9.73;;;;;;;-141.59;100.00;61776.25;5051653;28;20197;-91
2022/12/13 04:39:07;;;;;;;18.83;10.37;;;;;;;-141.59;100.00;61776.25;5050582;28;20221;-91
2022/12/13 04:41:38;;;;;;;17.40;9.73;;;;;;;-141.59;100.00;61776.25;5047004;28;20516;-91
2022/12/13 04:44:07;;;;;;;17.03;10.23;;;;;;;-141.59;100.00;61776.25;5047077;28;20215;-91
2022/12/13 04:46:34;;;;;;;17.73;10.60;;;;;;;-141.59;100.00;61776.25;5049822;28;20221;-90
2022/12/13 04:49:01;;;;;;;18.03;10.80;;;;;;;-141.59;100.00;61776.25;5049509;28;20221;-91
2022/12/13 04:51:29;;;;;;;17.63;10.63;;;;;;;-141.59;100.00;61776.25;5045280;28;20208;-90
2022/12/13 04:53:57;;;;;;;20.07;11.30;;;;;;;-141.59;100.00;61776.25;5050710;28;20272;-91
2022/12/13 04:56:24;;;;;;;20.43;11.37;;;;;;;-141.59;100.00;61776.25;5051167;28;20210;-90
2022/12/13 04:58:53;;;;;;;24.83;13.97;;;;;;;-141.59;100.00;61776.25;5052105;28;20202;-90
2022/12/13 05:01:20;;;;;;;26.13;15.43;;;;;;;-141.59;100.00;61776.25;5051861;28;20290;-91
2022/12/13 05:03:47;;;;;;;23.47;12.67;;;;;;;-141.59;100.00;61776.25;5044032;28;20219;-89
2022/12/13 05:06:15;;;;;;;21.73;12.50;;;;;;;-141.59;100.00;61776.25;5072673;28;20230;-90
2022/12/13 05:08:42;;;;;;;21.23;11.87;;;;;;;-141.59;100.00;61776.25;5049485;28;20206;-91
2022/12/13 05:11:11;;;;;;;22.20;12.13;;;;;;;-141.59;100.00;61776.25;5051042;28;20246;-90
2022/12/13 05:13:39;;;;;;;31.07;19.40;;;;;;;-141.59;100.00;61776.25;5052078;28;20197;-89
2022/12/13 05:16:09;;;;;;;20.93;11.57;;;;;;;-141.59;100.00;61776.25;5051322;28;20292;-91
2022/12/13 05:18:37;;;;;;;19.37;12.77;;;;;;;-141.59;100.00;61776.25;5049522;28;20211;-90
2022/12/13 05:24:00;;;;;;;19.67;11.63;;;;;;;-141.59;100.00;61776.25;5025702;28;20210;-90
2022/12/13 05:26:27;;;;;;;22.43;12.90;;;;;;;-141.59;100.00;61776.25;5029810;28;20202;-90
2022/12/13 05:28:55;;;;;;;25.83;13.93;;;;;;;-141.59;100.00;61776.25;5032937;28;20213;-90
2022/12/13 05:31:24;;;;;;;23.40;13.03;;;;;;;-141.59;100.00;61776.25;5028364;28;20211;-90
2022/12/13 05:33:52;;;;;;;20.73;13.07;;;;;;;-141.59;100.00;61776.25;5031824;28;20239;-90
2022/12/13 05:36:21;;;;;;;21.87;13.00;;;;;;;-141.59;100.00;61776.25;5028939;28;20206;-91
2022/12/13 05:38:48;;;;;;;24.23;12.97;;;;;;;-141.59;100.00;61776.25;5029058;28;20220;-91
2022/12/13 05:41:19;;;;;;;19.07;12.47;;;;;;;-141.59;100.00;61776.25;5046944;28;20205;-91
2022/12/13 05:43:47;;;;;;;21.77;12.43;;;;;;;-141.59;100.00;61776.25;5029336;28;20210;-90
2022/12/13 05:46:14;;;;;;;24.10;13.33;;;;;;;-141.59;100.00;61776.25;5031393;28;20207;-91
2022/12/13 05:48:44;;;;;;;21.07;12.77;;;;;;;-141.59;100.00;61776.25;5031832;28;20198;-91
2022/12/13 05:51:12;;;;;;;25.63;15.20;;;;;;;-141.59;100.00;61776.25;5036021;28;20261;-91
2022/12/13 05:53:40;;;;;;;26.13;13.43;;;;;;;-141.59;100.00;61776.25;5032558;28;20230;-90
2022/12/13 05:56:09;;;;;;;22.00;12.90;;;;;;;-141.59;100.00;61776.25;5031828;28;20198;-92
2022/12/13 05:58:38;;;;;;;23.60;12.27;;;;;;;-141.59;100.00;61776.25;5034204;28;20210;-91
2022/12/13 06:01:07;;;;;;;22.93;13.20;;;;;;;-141.59;100.00;61776.25;5028280;28;20244;-91
2022/12/13 06:03:34;;;;;;;23.63;13.73;;;;;;;-141.59;100.00;61776.25;5048303;28;20233;-91
2022/12/13 06:06:03;;;;;;;19.73;12.53;;;;;;;-141.59;100.00;61776.25;5039247;28;20305;-89
2022/12/13 06:08:31;;;;;;;21.07;13.47;;;;;;;-141.59;100.00;61776.25;5029330;28;20219;-89
2022/12/13 06:10:59;;;;;;;26.07;13.90;;;;;;;-141.59;100.00;61776.25;5030090;28;20299;-92
2022/12/13 06:13:27;;;;;;;27.73;15.43;;;;;;;-141.59;100.00;61776.25;5029036;28;20207;-91
2022/12/13 06:15:55;;;;;;;26.13;13.87;;;;;;;-141.59;100.00;61776.25;5029459;28;20278;-90
2022/12/13 06:18:22;;;;;;;24.73;13.57;;;;;;;-141.59;100.00;61776.25;5035937;28;20232;-90
2022/12/13 06:21:00;;;;;;;26.10;14.93;;;;;;;-141.59;100.00;61776.25;5046834;28;20279;-90
2022/12/13 06:23:30;;;;;;;25.40;13.97;;;;;;;-141.59;100.00;61776.25;5050455;28;20205;-90
2022/12/13 06:25:57;;;;;;;24.03;13.87;;;;;;;-141.59;100.00;61776.25;5045293;28;20209;-91
2022/12/13 06:28:24;;;;;;;26.07;14.13;;;;;;;-141.59;100.00;61776.25;5053995;28;20201;-90
2022/12/13 06:30:52;;;;;;;24.63;14.30;;;;;;;-141.59;100.00;61776.25;5042844;28;20202;-90
2022/12/13 06:33:19;;;;;;;97.07;51.23;;;;;;;-141.59;100.00;61776.25;5053965;28;20200;-90
2022/12/13 06:35:47;;;;;;;59.37;32.27;;;;;;;-141.59;100.00;61776.25;5049108;28;20224;-90
2022/12/13 06:38:14;;;;;;;52.23;28.63;;;;;;;-141.59;100.00;61776.25;5045160;28;20244;-90
2022/12/13 06:40:42;;;;;;;34.87;17.73;;;;;;;-141.59;100.00;61776.25;5042781;28;20287;-91
2022/12/13 06:43:09;;;;;;;29.27;16.37;;;;;;;-141.59;100.00;61776.25;5054027;28;20197;-90
2022/12/13 06:45:40;;;;;;;25.67;14.77;;;;;;;-141.59;100.00;61776.25;5051077;28;20258;-89
2022/12/13 06:48:07;;;;;;;30.37;16.43;;;;;;;-141.59;100.00;61776.25;5054691;28;20206;-90
2022/12/13 06:50:34;;;;;;;30.73;16.80;;;;;;;-141.59;100.00;61776.25;5051941;28;20202;-90
2022/12/13 06:53:01;;;;;;;32.67;17.23;;;;;;;-141.59;100.00;61776.25;5058949;28;20213;-90
2022/12/13 06:55:28;;;;;;;33.30;17.13;;;;;;;-141.59;100.00;61776.25;5047379;28;20194;-90
2022/12/13 06:57:59;;;;;;;34.63;18.47;;;;;;;-141.59;100.00;61776.25;5052881;28;20184;-90
2022/12/13 07:00:26;;;;;;;35.43;18.87;;;;;;;-141.59;100.00;61776.25;5043845;28;20221;-90
2022/12/13 07:02:54;;;;;;;35.10;18.90;;;;;;;-141.59;100.00;61776.25;5044564;28;20234;-90
2022/12/13 07:05:21;;;;;;;32.20;16.97;;;;;;;-141.59;100.00;61776.25;5051695;28;20208;-90
2022/12/13 07:07:48;;;;;;;29.63;17.00;;;;;;;-141.59;100.00;61776.25;5066947;28;20217;-90
2022/12/13 07:10:16;;;;;;;30.10;16.10;;;;;;;-141.59;100.00;61776.25;5051693;28;20279;-90
2022/12/13 07:12:43;;;;;;;29.63;16.47;;;;;;;-141.59;100.00;61776.25;5055154;28;20197;-90
2022/12/13 07:15:12;;;;;;;27.30;15.53;;;;;;;-141.59;100.00;61776.25;5052019;28;20209;-90
2022/12/13 07:17:39;;;;;;;27.83;16.37;;;;;;;-141.59;100.00;61776.25;5053319;28;20282;-90
2022/12/13 07:20:12;;;;;;;32.00;17.60;;;;;;;-141.59;100.00;61776.25;5053532;28;20240;-90
2022/12/13 07:22:39;;;;;;;29.73;16.73;;;;;;;-141.59;100.00;61776.25;5051396;28;20201;-89
2022/12/13 07:25:07;;;;;;;26.47;16.07;;;;;;;-141.59;100.00;61776.25;5046865;28;20200;-89
2022/12/13 07:27:34;;;;;;;30.97;16.77;;;;;;;-141.59;100.00;61776.25;5049836;28;20251;-89
2022/12/13 07:30:02;;;;;;;27.47;15.40;;;;;;;-141.59;100.00;61776.25;5053501;28;20215;-90
2022/12/13 07:32:30;;;;;;;31.53;17.37;;;;;;;-141.59;100.00;61776.25;5050717;28;20210;-90
2022/12/13 07:34:57;;;;;;;31.57;17.20;;;;;;;-141.59;100.00;61776.25;5052647;28;20209;-90
2022/12/13 07:37:25;;;;;;;28.47;17.43;;;;;;;-141.59;100.00;61776.25;5068571;28;20198;-90
2022/12/13 07:39:52;;;;;;;29.77;18.07;;;;;;;-141.59;100.00;61776.25;5044867;28;20227;-90
2022/12/13 07:42:19;;;;;;;34.07;18.27;;;;;;;-141.59;100.00;61776.25;5054388;28;20208;-90
2022/12/13 07:44:46;;;;;;;30.20;16.23;;;;;;;-141.59;100.00;61776.25;5051928;28;20198;-91
2022/12/13 07:47:14;;;;;;;30.23;16.67;;;;;;;-141.59;100.00;61776.25;5054040;28;20208;-90
2022/12/13 07:49:42;;;;;;;32.07;16.83;;;;;;;-141.59;100.00;61776.25;5041901;28;20204;-91
2022/12/13 07:52:11;;;;;;;30.23;17.33;;;;;;;-141.59;100.00;61776.25;5039022;28;20270;-90
2022/12/13 07:54:38;;;;;;;30.50;16.97;;;;;;;-141.59;100.00;61776.25;5052381;28;20212;-90
2022/12/13 07:57:05;;;;;;;30.60;17.37;;;;;;;-141.59;100.00;61776.25;5069535;28;20198;-91
2022/12/13 07:59:32;;;;;;;29.80;17.70;;;;;;;-141.59;100.00;61776.25;5063729;28;20198;-90
2022/12/13 08:01:59;;;;;;;30.67;17.53;;;;;;;-141.59;100.00;61776.25;5049111;28;20193;-91
2022/12/13 08:04:26;;;;;;;32.30;17.37;;;;;;;-141.59;100.00;61776.25;5049070;28;20204;-91
2022/12/13 08:06:55;;;;;;;31.10;17.63;;;;;;;-141.59;100.00;61776.25;5039400;28;20197;-90
2022/12/13 08:09:23;;;;;;;33.13;17.47;;;;;;;-141.59;100.00;61776.25;5051089;28;20252;-90
2022/12/13 08:11:50;;;;;;;27.47;17.40;;;;;;;-141.59;100.00;61776.25;5048156;28;20218;-90
2022/12/13 08:14:17;;;;;;;34.00;18.17;;;;;;;-141.59;100.00;61776.25;5040256;28;20202;-91
2022/12/13 08:16:44;;;;;;;35.23;18.10;;;;;;;-141.59;100.00;61776.25;5052357;28;20292;-91
2022/12/13 08:19:12;;;;;;;33.83;17.73;;;;;;;-141.59;100.00;61776.25;5037399;28;20286;-90
2022/12/13 08:21:41;;;;;;;30.27;18.17;;;;;;;-141.59;100.00;61776.25;5067889;28;20217;-91
2022/12/13 08:24:10;;;;;;;31.47;16.80;;;;;;;-141.59;100.00;61776.25;5051537;28;20269;-90
2022/12/13 08:26:37;;;;;;;33.13;17.73;;;;;;;-141.59;100.00;61776.25;5041029;28;20213;-90
2022/12/13 08:29:05;;;;;;;34.37;18.07;;;;;;;-141.59;100.00;61776.25;5062977;28;20208;-90
2022/12/13 08:31:33;;;;;;;35.57;18.67;;;;;;;-141.59;100.00;61776.25;5049090;28;20201;-90
2022/12/13 08:34:00;;;;;;;30.27;18.10;;;;;;;-141.59;100.00;61776.25;5050194;28;20193;-89
2022/12/13 08:36:27;;;;;;;31.53;17.10;;;;;;;-141.59;100.00;61776.25;5047914;28;20205;-91
2022/12/13 08:38:56;;;;;;;36.03;19.33;;;;;;;-141.59;100.00;61776.25;5034836;28;20297;-91
2022/12/13 08:41:25;;;;;;;41.00;18.83;;;;;;;-141.59;100.00;61776.25;5050743;28;20229;-90
2022/12/13 08:43:52;;;;;;;31.80;17.93;;;;;;;-141.59;100.00;61776.25;5052019;28;20224;-90
2022/12/13 08:46:20;;;;;;;29.13;16.97;;;;;;;-141.59;100.00;61776.25;5038821;28;20206;-91
2022/12/13 08:48:47;;;;;;;31.90;17.53;;;;;;;-141.59;100.00;61776.25;5047574;28;20373;-90
2022/12/13 08:51:16;;;;;;;30.13;17.63;;;;;;;-141.59;100.00;61776.25;5042743;28;20476;-90
2022/12/13 08:53:43;;;;;;;31.23;17.53;;;;;;;-141.59;100.00;61776.25;5051045;28;20212;-90
2022/12/13 08:56:12;;;;;;;32.83;18.00;;;;;;;-141.59;100.00;61776.25;5047929;28;20214;-88
2022/12/13 08:58:40;;;;;;;34.57;18.00;;;;;;;-141.59;100.00;61776.25;5068522;28;20220;-88
2022/12/13 09:01:08;;;;;;;33.53;18.20;;;;;;;-141.59;100.00;61776.25;5047788;28;20224;-87
2022/12/13 09:03:35;;;;;;;30.90;17.77;;;;;;;-141.59;100.00;61776.25;5049651;28;20220;-88
2022/12/13 09:06:10;;;;;;;32.43;16.73;;;;;;;-141.59;100.00;61776.25;5050344;28;20213;-89
2022/12/13 09:08:38;;;;;;;30.73;17.83;;;;;;;-141.59;100.00;61776.25;5053340;28;20197;-90
2022/12/13 09:11:09;;;;;;;32.43;17.53;;;;;;;-141.59;100.00;61776.25;5048860;28;20313;-88
2022/12/13 09:13:37;;;;;;;33.73;18.33;;;;;;;-141.59;100.00;61776.25;5048872;28;20296;-87
2022/12/13 09:16:13;;;;;;;33.10;17.43;;;;;;;-141.59;100.00;61776.25;5051008;28;20197;-91
2022/12/13 09:18:40;;;;;;;33.27;17.70;;;;;;;-141.59;100.00;61776.25;5043455;28;20260;-88
2022/12/13 09:21:08;;;;;;;29.53;17.00;;;;;;;-141.59;100.00;61776.25;5041174;28;20228;-89
2022/12/13 09:23:35;;;;;;;29.23;17.63;;;;;;;-141.59;100.00;61776.25;5046813;28;20201;-88
2022/12/13 09:26:03;;;;;;;28.73;16.50;;;;;;;-141.59;100.00;61776.25;5047179;28;20213;-88
2022/12/13 09:28:31;;;;;;;28.47;16.70;;;;;;;-141.59;100.00;61776.25;5050088;28;20243;-88
2022/12/13 09:30:58;;;;;;;29.23;16.83;;;;;;;-141.59;100.00;61776.25;5039708;28;20317;-89
2022/12/13 09:33:27;;;;;;;27.50;16.60;;;;;;;-141.59;100.00;61776.25;5052023;28;20201;-87
2022/12/13 09:35:54;;;;;;;30.30;17.77;;;;;;;-141.59;100.00;61776.25;5048036;28;20209;-88
2022/12/13 09:38:22;;;;;;;26.17;16.13;;;;;;;-141.59;100.00;61776.25;5045576;28;20210;-87
2022/12/13 09:40:53;;;;;;;28.03;17.17;;;;;;;-141.59;100.00;61776.25;5048166;28;20221;-87
2022/12/13 09:43:26;;;;;;;26.30;16.20;;;;;;;-141.59;100.00;61776.25;5049041;28;20349;-88
2022/12/13 09:45:54;;;;;;;28.97;17.13;;;;;;;-141.59;100.00;61776.25;5034938;28;20198;-87
2022/12/13 09:48:23;;;;;;;26.87;15.50;;;;;;;-141.59;100.00;61776.25;5044668;28;20275;-87
2022/12/13 09:50:51;;;;;;;28.40;16.57;;;;;;;-141.59;100.00;61776.25;5047774;28;20230;-87
2022/12/13 09:53:20;;;;;;;26.77;15.97;;;;;;;-141.59;100.00;61776.25;5051509;28;20197;-87
2022/12/13 09:55:48;;;;;;;34.20;17.00;;;;;;;-141.59;100.00;61776.25;5043349;28;20245;-86
2022/12/13 09:58:20;;;;;;;26.47;15.80;;;;;;;-141.59;100.00;61776.25;5054340;28;20204;-88
2022/12/13 10:00:50;;;;;;;26.00;15.73;;;;;;;-141.59;100.00;61776.25;5048946;28;20232;-87
2022/12/13 10:03:20;;;;;;;26.87;15.83;;;;;;;-141.59;100.00;61776.25;5050261;28;20214;-86
2022/12/13 10:05:57;;;;;;;29.77;17.33;;;;;;;-141.59;100.00;61776.25;5048134;28;20199;-87
2022/12/13 10:08:31;;;;;;;28.30;16.77;;;;;;;-141.59;100.00;61776.25;5049344;28;20205;-86
2022/12/13 10:10:58;;;;;;;27.67;16.53;;;;;;;-141.59;100.00;61776.25;5052965;28;20223;-86
2022/12/13 10:13:36;;;;;;;28.70;17.37;;;;;;;-141.59;100.00;61776.25;5053055;28;20218;-86
2022/12/13 10:16:09;;;;;;;26.97;16.30;;;;;;;-141.59;100.00;61776.25;5052559;28;20289;-86
2022/12/13 10:18:38;;;;;;;31.80;17.67;;;;;;;-141.59;100.00;61776.25;5046674;28;20217;-85
2022/12/13 10:21:11;;;;;;;28.70;16.37;;;;;;;-141.59;100.00;61776.25;5030320;28;20290;-85
2022/12/13 10:23:38;;;;;;;30.03;17.17;;;;;;;-141.59;100.00;61776.25;5030985;28;20203;-85
2022/12/13 10:26:09;;;;;;;28.13;16.80;;;;;;;-141.59;100.00;61776.25;5026833;28;20218;-85
2022/12/13 10:28:37;;;;;;;28.07;16.23;;;;;;;-141.59;100.00;61776.25;5031682;28;20206;-85
2022/12/13 10:31:04;;;;;;;27.67;16.13;;;;;;;-141.59;100.00;61776.25;5033513;28;20195;-85
2022/12/13 10:33:34;;;;;;;29.90;17.73;;;;;;;-141.59;100.00;61776.25;5048030;28;20201;-86
2022/12/13 10:36:14;;;;;;;30.50;16.93;;;;;;;-141.59;100.00;61776.25;5027790;28;20278;-85
2022/12/13 10:38:44;;;;;;;28.97;16.93;;;;;;;-141.59;100.00;61776.25;5018789;28;20222;-85
2022/12/13 10:41:33;;;;;;;30.30;17.37;;;;;;;-141.59;100.00;61776.25;5026715;28;20253;-85
2022/12/13 10:44:19;;;;;;;28.90;17.37;;;;;;;-141.59;100.00;61776.25;5043577;28;20214;-85
2022/12/13 10:46:53;;;;;;;30.20;17.03;;;;;;;-141.59;100.00;61776.25;5030490;28;20213;-85
2022/12/13 10:49:23;;;;;;;27.23;16.30;;;;;;;-141.59;100.00;61776.25;5033850;28;20217;-85
2022/12/13 10:51:53;;;;;;;30.37;15.70;;;;;;;-141.59;100.00;61776.25;5034210;28;20310;-85
2022/12/13 10:54:27;;;;;;;30.70;16.77;;;;;;;-141.59;100.00;61776.25;5035525;28;20208;-85
2022/12/13 10:56:59;;;;;;;28.60;16.67;;;;;;;-141.59;100.00;61776.25;5036178;28;20207;-85
2022/12/13 10:59:32;;;;;;;27.80;16.97;;;;;;;-141.59;100.00;61776.25;5029192;28;20207;-85
2022/12/13 11:02:00;;;;;;;27.73;16.43;;;;;;;-141.59;100.00;61776.25;5034411;28;20222;-86
2022/12/13 11:04:30;;;;;;;30.63;15.90;;;;;;;-141.59;100.00;61776.25;5033866;28;20235;-86
2022/12/13 11:07:00;;;;;;;25.77;15.50;;;;;;;-141.59;100.00;61776.25;5036914;28;20210;-85
2022/12/13 11:09:30;;;;;;;30.27;16.37;;;;;;;-141.59;100.00;61776.25;5028809;28;20203;-85
2022/12/13 11:12:00;;;;;;;24.77;16.03;;;;;;;-141.59;100.00;61776.25;5032731;28;20226;-86
2022/12/13 11:14:32;;;;;;;28.23;15.40;;;;;;;-141.59;100.00;61776.25;5044323;28;20265;-86
2022/12/13 11:17:09;;;;;;;26.40;15.57;;;;;;;-141.59;100.00;61776.25;5027939;28;20198;-86
2022/12/13 11:19:40;;;;;;;29.27;15.90;;;;;;;-141.59;100.00;61776.25;5027798;28;20226;-87